sensor_id;sensor_type;location;lat;lon;timestamp;P1;durP1;ratioP1;P2;durP2;ratioP2
51614;SDS011;37695;52.960;6.188;2023-08-24T00:00:06;3.33;;;1.92;;
51614;SDS011;37695;52.960;6.188;2023-08-24T00:02:32;5.38;;;2.53;;
51614;SDS011;37695;52.960;6.188;2023-08-24T00:04:58;4.30;;;2.50;;
51614;SDS011;37695;52.960;6.188;2023-08-24T00:07:23;1.80;;;1.70;;
51614;SDS011;37695;52.960;6.188;2023-08-24T00:09:52;3.25;;;2.00;;
51614;SDS011;37695;52.960;6.188;2023-08-24T00:12:18;2.42;;;1.85;;
51614;SDS011;37695;52.960;6.188;2023-08-24T00:14:43;2.35;;;1.95;;
51614;SDS011;37695;52.960;6.188;2023-08-24T00:17:09;5.03;;;3.83;;
51614;SDS011;37695;52.960;6.188;2023-08-24T00:19:34;7.72;;;3.70;;
51614;SDS011;37695;52.960;6.188;2023-08-24T00:22:00;4.38;;;3.08;;
51614;SDS011;37695;52.960;6.188;2023-08-24T00:24:25;6.47;;;2.53;;
51614;SDS011;37695;52.960;6.188;2023-08-24T00:26:51;4.32;;;3.33;;
51614;SDS011;37695;52.960;6.188;2023-08-24T00:29:16;6.18;;;3.75;;
51614;SDS011;37695;52.960;6.188;2023-08-24T00:31:42;5.28;;;3.72;;
51614;SDS011;37695;52.960;6.188;2023-08-24T00:34:07;8.13;;;3.63;;
51614;SDS011;37695;52.960;6.188;2023-08-24T00:36:33;3.95;;;3.00;;
51614;SDS011;37695;52.960;6.188;2023-08-24T00:38:58;9.15;;;3.50;;
51614;SDS011;37695;52.960;6.188;2023-08-24T00:41:24;4.72;;;3.42;;
51614;SDS011;37695;52.960;6.188;2023-08-24T00:43:50;5.97;;;3.67;;
51614;SDS011;37695;52.960;6.188;2023-08-24T00:46:15;6.78;;;4.05;;
51614;SDS011;37695;52.960;6.188;2023-08-24T00:48:41;6.05;;;4.00;;
51614;SDS011;37695;52.960;6.188;2023-08-24T00:51:07;8.05;;;4.78;;
51614;SDS011;37695;52.960;6.188;2023-08-24T00:53:33;7.82;;;4.82;;
51614;SDS011;37695;52.960;6.188;2023-08-24T00:55:59;6.40;;;4.50;;
51614;SDS011;37695;52.960;6.188;2023-08-24T00:58:26;5.55;;;4.20;;
51614;SDS011;37695;52.960;6.188;2023-08-24T01:00:52;10.15;;;4.45;;
51614;SDS011;37695;52.960;6.188;2023-08-24T01:03:19;6.57;;;4.30;;
51614;SDS011;37695;52.960;6.188;2023-08-24T01:05:47;7.63;;;4.38;;
51614;SDS011;37695;52.960;6.188;2023-08-24T01:08:13;5.00;;;4.20;;
51614;SDS011;37695;52.960;6.188;2023-08-24T01:10:40;6.20;;;4.10;;
51614;SDS011;37695;52.960;6.188;2023-08-24T01:13:21;7.70;;;4.20;;
51614;SDS011;37695;52.960;6.188;2023-08-24T01:16:01;7.93;;;4.38;;
51614;SDS011;37695;52.960;6.188;2023-08-24T01:18:41;6.75;;;4.45;;
51614;SDS011;37695;52.960;6.188;2023-08-24T01:21:08;7.45;;;4.72;;
51614;SDS011;37695;52.960;6.188;2023-08-24T01:23:36;6.85;;;4.47;;
51614;SDS011;37695;52.960;6.188;2023-08-24T01:28:39;9.48;;;4.35;;
51614;SDS011;37695;52.960;6.188;2023-08-24T01:31:07;10.65;;;4.35;;
51614;SDS011;37695;52.960;6.188;2023-08-24T01:33:33;5.53;;;4.18;;
51614;SDS011;37695;52.960;6.188;2023-08-24T01:35:59;8.68;;;5.00;;
51614;SDS011;37695;52.960;6.188;2023-08-24T01:38:25;7.07;;;4.70;;
51614;SDS011;37695;52.960;6.188;2023-08-24T01:41:04;8.52;;;5.20;;
51614;SDS011;37695;52.960;6.188;2023-08-24T01:43:52;12.38;;;5.82;;
51614;SDS011;37695;52.960;6.188;2023-08-24T01:46:20;7.88;;;5.40;;
51614;SDS011;37695;52.960;6.188;2023-08-24T01:48:47;9.07;;;5.30;;
51614;SDS011;37695;52.960;6.188;2023-08-24T01:51:14;6.65;;;5.43;;
51614;SDS011;37695;52.960;6.188;2023-08-24T01:53:40;9.18;;;5.63;;
51614;SDS011;37695;52.960;6.188;2023-08-24T01:56:10;7.03;;;5.05;;
51614;SDS011;37695;52.960;6.188;2023-08-24T01:58:41;7.18;;;5.65;;
51614;SDS011;37695;52.960;6.188;2023-08-24T02:01:10;7.57;;;5.30;;
51614;SDS011;37695;52.960;6.188;2023-08-24T02:03:37;8.52;;;5.95;;
51614;SDS011;37695;52.960;6.188;2023-08-24T02:06:04;8.95;;;5.63;;
51614;SDS011;37695;52.960;6.188;2023-08-24T02:08:31;8.23;;;5.40;;
51614;SDS011;37695;52.960;6.188;2023-08-24T02:10:57;8.73;;;6.13;;
51614;SDS011;37695;52.960;6.188;2023-08-24T02:13:23;7.35;;;5.25;;
51614;SDS011;37695;52.960;6.188;2023-08-24T02:15:48;9.77;;;5.00;;
51614;SDS011;37695;52.960;6.188;2023-08-24T02:18:14;6.95;;;5.03;;
51614;SDS011;37695;52.960;6.188;2023-08-24T02:20:40;6.90;;;5.63;;
51614;SDS011;37695;52.960;6.188;2023-08-24T02:23:05;9.40;;;5.97;;
51614;SDS011;37695;52.960;6.188;2023-08-24T02:25:31;8.40;;;5.50;;
51614;SDS011;37695;52.960;6.188;2023-08-24T02:27:58;11.45;;;5.50;;
51614;SDS011;37695;52.960;6.188;2023-08-24T02:30:23;8.90;;;5.63;;
51614;SDS011;37695;52.960;6.188;2023-08-24T02:32:49;11.10;;;5.90;;
51614;SDS011;37695;52.960;6.188;2023-08-24T02:35:15;9.48;;;6.22;;
51614;SDS011;37695;52.960;6.188;2023-08-24T02:37:41;8.18;;;5.40;;
51614;SDS011;37695;52.960;6.188;2023-08-24T02:40:07;9.48;;;5.72;;
51614;SDS011;37695;52.960;6.188;2023-08-24T02:42:34;11.07;;;5.85;;
51614;SDS011;37695;52.960;6.188;2023-08-24T02:45:00;8.55;;;5.13;;
51614;SDS011;37695;52.960;6.188;2023-08-24T02:47:26;5.25;;;4.00;;
51614;SDS011;37695;52.960;6.188;2023-08-24T02:49:51;6.45;;;4.72;;
51614;SDS011;37695;52.960;6.188;2023-08-24T02:52:17;5.85;;;3.80;;
51614;SDS011;37695;52.960;6.188;2023-08-24T02:54:43;6.10;;;3.88;;
51614;SDS011;37695;52.960;6.188;2023-08-24T02:57:08;5.88;;;3.83;;
51614;SDS011;37695;52.960;6.188;2023-08-24T02:59:34;6.63;;;3.80;;
51614;SDS011;37695;52.960;6.188;2023-08-24T03:02:00;4.85;;;3.80;;
51614;SDS011;37695;52.960;6.188;2023-08-24T03:04:25;6.07;;;4.72;;
51614;SDS011;37695;52.960;6.188;2023-08-24T03:06:51;7.03;;;4.90;;
51614;SDS011;37695;52.960;6.188;2023-08-24T03:09:17;11.18;;;6.03;;
51614;SDS011;37695;52.960;6.188;2023-08-24T03:11:42;10.45;;;5.55;;
51614;SDS011;37695;52.960;6.188;2023-08-24T03:14:08;10.02;;;6.07;;
51614;SDS011;37695;52.960;6.188;2023-08-24T03:16:33;7.90;;;5.50;;
51614;SDS011;37695;52.960;6.188;2023-08-24T03:18:59;8.48;;;5.65;;
51614;SDS011;37695;52.960;6.188;2023-08-24T03:21:25;7.43;;;5.63;;
51614;SDS011;37695;52.960;6.188;2023-08-24T03:23:50;10.82;;;6.03;;
51614;SDS011;37695;52.960;6.188;2023-08-24T03:26:16;8.68;;;6.07;;
51614;SDS011;37695;52.960;6.188;2023-08-24T03:28:42;8.32;;;6.18;;
51614;SDS011;37695;52.960;6.188;2023-08-24T03:31:08;9.35;;;6.05;;
51614;SDS011;37695;52.960;6.188;2023-08-24T03:33:33;8.25;;;5.68;;
51614;SDS011;37695;52.960;6.188;2023-08-24T03:36:00;8.00;;;6.40;;
51614;SDS011;37695;52.960;6.188;2023-08-24T03:38:26;7.85;;;5.30;;
51614;SDS011;37695;52.960;6.188;2023-08-24T03:40:52;7.60;;;5.78;;
51614;SDS011;37695;52.960;6.188;2023-08-24T03:43:25;7.97;;;5.50;;
51614;SDS011;37695;52.960;6.188;2023-08-24T03:45:51;8.65;;;6.03;;
51614;SDS011;37695;52.960;6.188;2023-08-24T03:48:16;8.23;;;5.70;;
51614;SDS011;37695;52.960;6.188;2023-08-24T03:50:43;8.20;;;5.20;;
51614;SDS011;37695;52.960;6.188;2023-08-24T03:53:08;9.02;;;5.40;;
51614;SDS011;37695;52.960;6.188;2023-08-24T03:55:34;9.65;;;5.40;;
51614;SDS011;37695;52.960;6.188;2023-08-24T03:57:59;8.35;;;5.88;;
51614;SDS011;37695;52.960;6.188;2023-08-24T04:00:25;10.07;;;5.68;;
51614;SDS011;37695;52.960;6.188;2023-08-24T04:02:51;9.30;;;5.28;;
51614;SDS011;37695;52.960;6.188;2023-08-24T04:05:16;10.50;;;5.82;;
51614;SDS011;37695;52.960;6.188;2023-08-24T04:07:42;10.07;;;4.93;;
51614;SDS011;37695;52.960;6.188;2023-08-24T04:10:08;10.60;;;6.00;;
51614;SDS011;37695;52.960;6.188;2023-08-24T04:12:34;5.88;;;4.18;;
51614;SDS011;37695;52.960;6.188;2023-08-24T04:15:00;5.70;;;3.63;;
51614;SDS011;37695;52.960;6.188;2023-08-24T04:17:26;6.43;;;3.85;;
51614;SDS011;37695;52.960;6.188;2023-08-24T04:19:51;5.80;;;3.40;;
51614;SDS011;37695;52.960;6.188;2023-08-24T04:22:17;4.40;;;3.17;;
51614;SDS011;37695;52.960;6.188;2023-08-24T04:24:43;6.13;;;3.17;;
51614;SDS011;37695;52.960;6.188;2023-08-24T04:27:08;4.50;;;3.17;;
51614;SDS011;37695;52.960;6.188;2023-08-24T04:29:34;4.10;;;3.30;;
51614;SDS011;37695;52.960;6.188;2023-08-24T04:31:59;4.00;;;3.30;;
51614;SDS011;37695;52.960;6.188;2023-08-24T04:34:25;5.57;;;3.80;;
51614;SDS011;37695;52.960;6.188;2023-08-24T04:36:51;4.97;;;3.80;;
51614;SDS011;37695;52.960;6.188;2023-08-24T04:39:17;8.98;;;3.58;;
51614;SDS011;37695;52.960;6.188;2023-08-24T04:41:43;8.13;;;4.03;;
51614;SDS011;37695;52.960;6.188;2023-08-24T04:44:09;5.55;;;4.43;;
51614;SDS011;37695;52.960;6.188;2023-08-24T04:46:34;7.22;;;4.45;;
51614;SDS011;37695;52.960;6.188;2023-08-24T04:49:00;6.38;;;4.28;;
51614;SDS011;37695;52.960;6.188;2023-08-24T04:51:25;5.75;;;4.68;;
51614;SDS011;37695;52.960;6.188;2023-08-24T04:53:52;7.32;;;4.15;;
51614;SDS011;37695;52.960;6.188;2023-08-24T04:56:18;5.75;;;4.05;;
51614;SDS011;37695;52.960;6.188;2023-08-24T04:58:57;6.95;;;4.35;;
51614;SDS011;37695;52.960;6.188;2023-08-24T05:01:25;6.82;;;3.92;;
51614;SDS011;37695;52.960;6.188;2023-08-24T05:03:56;6.75;;;4.15;;
51614;SDS011;37695;52.960;6.188;2023-08-24T05:06:22;5.57;;;4.18;;
51614;SDS011;37695;52.960;6.188;2023-08-24T05:08:48;6.43;;;4.38;;
51614;SDS011;37695;52.960;6.188;2023-08-24T05:11:14;9.40;;;5.75;;
51614;SDS011;37695;52.960;6.188;2023-08-24T05:13:42;5.70;;;4.40;;
51614;SDS011;37695;52.960;6.188;2023-08-24T05:16:11;11.55;;;5.22;;
51614;SDS011;37695;52.960;6.188;2023-08-24T05:18:38;6.57;;;4.53;;
51614;SDS011;37695;52.960;6.188;2023-08-24T05:21:04;6.25;;;4.05;;
51614;SDS011;37695;52.960;6.188;2023-08-24T05:23:31;7.88;;;4.72;;
51614;SDS011;37695;52.960;6.188;2023-08-24T05:25:57;6.10;;;4.80;;
51614;SDS011;37695;52.960;6.188;2023-08-24T05:28:27;5.45;;;4.35;;
51614;SDS011;37695;52.960;6.188;2023-08-24T05:30:53;6.00;;;4.78;;
51614;SDS011;37695;52.960;6.188;2023-08-24T05:33:20;7.70;;;5.53;;
51614;SDS011;37695;52.960;6.188;2023-08-24T05:35:46;6.85;;;4.68;;
51614;SDS011;37695;52.960;6.188;2023-08-24T05:38:12;7.10;;;4.97;;
51614;SDS011;37695;52.960;6.188;2023-08-24T05:40:39;9.90;;;6.47;;
51614;SDS011;37695;52.960;6.188;2023-08-24T05:43:04;13.25;;;5.97;;
51614;SDS011;37695;52.960;6.188;2023-08-24T05:45:30;9.38;;;5.50;;
51614;SDS011;37695;52.960;6.188;2023-08-24T05:47:56;8.15;;;6.15;;
51614;SDS011;37695;52.960;6.188;2023-08-24T05:50:22;9.45;;;6.60;;
51614;SDS011;37695;52.960;6.188;2023-08-24T05:52:47;8.70;;;5.88;;
51614;SDS011;37695;52.960;6.188;2023-08-24T05:55:13;9.93;;;5.75;;
51614;SDS011;37695;52.960;6.188;2023-08-24T05:57:38;7.72;;;5.50;;
51614;SDS011;37695;52.960;6.188;2023-08-24T06:00:04;9.88;;;6.38;;
51614;SDS011;37695;52.960;6.188;2023-08-24T06:02:34;8.30;;;5.30;;
51614;SDS011;37695;52.960;6.188;2023-08-24T06:05:01;6.80;;;5.00;;
51614;SDS011;37695;52.960;6.188;2023-08-24T06:07:26;7.50;;;5.97;;
51614;SDS011;37695;52.960;6.188;2023-08-24T06:09:52;9.13;;;5.78;;
51614;SDS011;37695;52.960;6.188;2023-08-24T06:12:18;9.20;;;5.88;;
51614;SDS011;37695;52.960;6.188;2023-08-24T06:14:43;9.43;;;5.43;;
51614;SDS011;37695;52.960;6.188;2023-08-24T06:17:09;10.20;;;5.32;;
51614;SDS011;37695;52.960;6.188;2023-08-24T06:19:34;7.45;;;5.32;;
51614;SDS011;37695;52.960;6.188;2023-08-24T06:22:00;10.80;;;6.47;;
51614;SDS011;37695;52.960;6.188;2023-08-24T06:24:25;10.30;;;6.30;;
51614;SDS011;37695;52.960;6.188;2023-08-24T06:26:51;10.55;;;6.55;;
51614;SDS011;37695;52.960;6.188;2023-08-24T06:29:16;10.57;;;6.13;;
51614;SDS011;37695;52.960;6.188;2023-08-24T06:31:42;9.77;;;5.95;;
51614;SDS011;37695;52.960;6.188;2023-08-24T06:34:07;10.85;;;6.28;;
51614;SDS011;37695;52.960;6.188;2023-08-24T06:36:33;10.25;;;5.72;;
51614;SDS011;37695;52.960;6.188;2023-08-24T06:38:59;8.90;;;5.97;;
51614;SDS011;37695;52.960;6.188;2023-08-24T06:41:25;11.25;;;6.28;;
51614;SDS011;37695;52.960;6.188;2023-08-24T06:43:50;13.45;;;6.03;;
51614;SDS011;37695;52.960;6.188;2023-08-24T06:46:18;10.80;;;6.07;;
51614;SDS011;37695;52.960;6.188;2023-08-24T06:48:44;13.70;;;6.15;;
51614;SDS011;37695;52.960;6.188;2023-08-24T06:51:10;8.93;;;5.28;;
51614;SDS011;37695;52.960;6.188;2023-08-24T06:53:36;7.95;;;5.47;;
51614;SDS011;37695;52.960;6.188;2023-08-24T06:56:02;9.43;;;5.25;;
51614;SDS011;37695;52.960;6.188;2023-08-24T06:58:28;9.18;;;4.45;;
51614;SDS011;37695;52.960;6.188;2023-08-24T07:00:54;7.28;;;4.35;;
51614;SDS011;37695;52.960;6.188;2023-08-24T07:03:20;8.13;;;4.85;;
51614;SDS011;37695;52.960;6.188;2023-08-24T07:05:46;8.57;;;4.82;;
51614;SDS011;37695;52.960;6.188;2023-08-24T07:08:12;7.78;;;4.80;;
51614;SDS011;37695;52.960;6.188;2023-08-24T07:10:38;7.57;;;4.63;;
51614;SDS011;37695;52.960;6.188;2023-08-24T07:13:05;7.75;;;4.70;;
51614;SDS011;37695;52.960;6.188;2023-08-24T07:15:31;8.55;;;5.18;;
51614;SDS011;37695;52.960;6.188;2023-08-24T07:17:59;10.02;;;5.30;;
51614;SDS011;37695;52.960;6.188;2023-08-24T07:20:25;9.30;;;5.15;;
51614;SDS011;37695;52.960;6.188;2023-08-24T07:22:51;8.70;;;4.82;;
51614;SDS011;37695;52.960;6.188;2023-08-24T07:25:18;7.22;;;5.40;;
51614;SDS011;37695;52.960;6.188;2023-08-24T07:27:46;8.50;;;5.38;;
51614;SDS011;37695;52.960;6.188;2023-08-24T07:30:12;9.20;;;5.45;;
51614;SDS011;37695;52.960;6.188;2023-08-24T07:32:38;15.82;;;5.93;;
51614;SDS011;37695;52.960;6.188;2023-08-24T07:35:04;10.48;;;6.50;;
51614;SDS011;37695;52.960;6.188;2023-08-24T07:37:31;10.32;;;5.88;;
51614;SDS011;37695;52.960;6.188;2023-08-24T07:39:57;10.02;;;6.60;;
51614;SDS011;37695;52.960;6.188;2023-08-24T07:42:22;9.13;;;6.18;;
51614;SDS011;37695;52.960;6.188;2023-08-24T07:44:48;9.43;;;5.72;;
51614;SDS011;37695;52.960;6.188;2023-08-24T07:47:14;11.30;;;5.80;;
51614;SDS011;37695;52.960;6.188;2023-08-24T07:49:40;11.65;;;6.68;;
51614;SDS011;37695;52.960;6.188;2023-08-24T07:52:09;10.18;;;5.75;;
51614;SDS011;37695;52.960;6.188;2023-08-24T07:54:36;11.80;;;5.85;;
51614;SDS011;37695;52.960;6.188;2023-08-24T07:57:01;9.43;;;5.40;;
51614;SDS011;37695;52.960;6.188;2023-08-24T07:59:27;8.63;;;5.43;;
51614;SDS011;37695;52.960;6.188;2023-08-24T08:01:52;7.97;;;5.22;;
51614;SDS011;37695;52.960;6.188;2023-08-24T08:04:18;9.95;;;6.03;;
51614;SDS011;37695;52.960;6.188;2023-08-24T08:06:43;11.25;;;5.95;;
51614;SDS011;37695;52.960;6.188;2023-08-24T08:09:09;14.60;;;6.22;;
51614;SDS011;37695;52.960;6.188;2023-08-24T08:11:35;11.10;;;6.30;;
51614;SDS011;37695;52.960;6.188;2023-08-24T08:14:00;10.63;;;6.07;;
51614;SDS011;37695;52.960;6.188;2023-08-24T08:16:26;9.88;;;6.03;;
51614;SDS011;37695;52.960;6.188;2023-08-24T08:18:51;10.45;;;6.15;;
51614;SDS011;37695;52.960;6.188;2023-08-24T08:21:17;11.00;;;5.57;;
51614;SDS011;37695;52.960;6.188;2023-08-24T08:23:43;7.90;;;5.30;;
51614;SDS011;37695;52.960;6.188;2023-08-24T08:26:10;9.40;;;5.22;;
51614;SDS011;37695;52.960;6.188;2023-08-24T08:28:37;13.05;;;6.15;;
51614;SDS011;37695;52.960;6.188;2023-08-24T08:31:02;11.70;;;6.57;;
51614;SDS011;37695;52.960;6.188;2023-08-24T08:33:28;12.23;;;6.60;;
51614;SDS011;37695;52.960;6.188;2023-08-24T08:35:55;9.98;;;6.80;;
51614;SDS011;37695;52.960;6.188;2023-08-24T08:38:21;10.02;;;6.28;;
51614;SDS011;37695;52.960;6.188;2023-08-24T08:41:02;10.75;;;5.95;;
51614;SDS011;37695;52.960;6.188;2023-08-24T08:43:28;9.15;;;6.15;;
51614;SDS011;37695;52.960;6.188;2023-08-24T08:45:55;12.10;;;6.35;;
51614;SDS011;37695;52.960;6.188;2023-08-24T08:48:22;12.50;;;6.70;;
51614;SDS011;37695;52.960;6.188;2023-08-24T08:50:49;8.75;;;6.40;;
51614;SDS011;37695;52.960;6.188;2023-08-24T08:53:16;12.25;;;5.80;;
51614;SDS011;37695;52.960;6.188;2023-08-24T08:55:42;15.85;;;9.52;;
51614;SDS011;37695;52.960;6.188;2023-08-24T08:58:09;19.85;;;9.18;;
51614;SDS011;37695;52.960;6.188;2023-08-24T09:00:35;15.60;;;6.78;;
51614;SDS011;37695;52.960;6.188;2023-08-24T09:03:02;14.35;;;6.85;;
51614;SDS011;37695;52.960;6.188;2023-08-24T09:05:30;12.00;;;6.28;;
51614;SDS011;37695;52.960;6.188;2023-08-24T09:07:56;10.98;;;6.70;;
51614;SDS011;37695;52.960;6.188;2023-08-24T09:10:24;9.60;;;5.85;;
51614;SDS011;37695;52.960;6.188;2023-08-24T09:12:50;13.45;;;6.30;;
51614;SDS011;37695;52.960;6.188;2023-08-24T09:15:23;11.65;;;6.47;;
51614;SDS011;37695;52.960;6.188;2023-08-24T09:17:50;9.07;;;6.53;;
51614;SDS011;37695;52.960;6.188;2023-08-24T09:20:15;11.15;;;6.65;;
51614;SDS011;37695;52.960;6.188;2023-08-24T09:22:42;10.05;;;6.82;;
51614;SDS011;37695;52.960;6.188;2023-08-24T09:25:09;9.45;;;6.78;;
51614;SDS011;37695;52.960;6.188;2023-08-24T09:27:36;9.73;;;6.45;;
51614;SDS011;37695;52.960;6.188;2023-08-24T09:30:02;9.90;;;6.90;;
51614;SDS011;37695;52.960;6.188;2023-08-24T09:32:28;9.13;;;6.50;;
51614;SDS011;37695;52.960;6.188;2023-08-24T09:34:54;11.13;;;6.43;;
51614;SDS011;37695;52.960;6.188;2023-08-24T09:37:20;10.13;;;7.05;;
51614;SDS011;37695;52.960;6.188;2023-08-24T09:39:46;10.30;;;7.05;;
51614;SDS011;37695;52.960;6.188;2023-08-24T09:42:12;11.25;;;7.00;;
51614;SDS011;37695;52.960;6.188;2023-08-24T09:44:44;11.90;;;7.45;;
51614;SDS011;37695;52.960;6.188;2023-08-24T09:47:11;14.80;;;7.07;;
51614;SDS011;37695;52.960;6.188;2023-08-24T09:49:37;13.18;;;7.53;;
51614;SDS011;37695;52.960;6.188;2023-08-24T09:52:06;9.65;;;7.30;;
51614;SDS011;37695;52.960;6.188;2023-08-24T09:54:35;11.55;;;7.85;;
51614;SDS011;37695;52.960;6.188;2023-08-24T09:57:02;11.90;;;7.47;;
51614;SDS011;37695;52.960;6.188;2023-08-24T09:59:32;11.27;;;7.90;;
51614;SDS011;37695;52.960;6.188;2023-08-24T10:01:59;10.52;;;8.07;;
51614;SDS011;37695;52.960;6.188;2023-08-24T10:04:29;16.23;;;8.00;;
51614;SDS011;37695;52.960;6.188;2023-08-24T10:07:00;9.65;;;7.88;;
51614;SDS011;37695;52.960;6.188;2023-08-24T10:09:33;12.45;;;8.70;;
51614;SDS011;37695;52.960;6.188;2023-08-24T10:12:04;12.18;;;8.45;;
51614;SDS011;37695;52.960;6.188;2023-08-24T10:14:32;13.63;;;8.68;;
51614;SDS011;37695;52.960;6.188;2023-08-24T10:17:08;11.77;;;8.63;;
51614;SDS011;37695;52.960;6.188;2023-08-24T10:19:35;10.55;;;8.82;;
51614;SDS011;37695;52.960;6.188;2023-08-24T10:22:01;13.57;;;9.68;;
51614;SDS011;37695;52.960;6.188;2023-08-24T10:24:27;14.38;;;9.38;;
51614;SDS011;37695;52.960;6.188;2023-08-24T10:26:54;15.30;;;9.98;;
51614;SDS011;37695;52.960;6.188;2023-08-24T10:29:21;13.52;;;9.45;;
51614;SDS011;37695;52.960;6.188;2023-08-24T10:31:49;12.15;;;9.18;;
51614;SDS011;37695;52.960;6.188;2023-08-24T10:34:15;17.40;;;10.07;;
51614;SDS011;37695;52.960;6.188;2023-08-24T10:36:41;12.95;;;9.43;;
51614;SDS011;37695;52.960;6.188;2023-08-24T10:39:07;11.50;;;9.38;;
51614;SDS011;37695;52.960;6.188;2023-08-24T10:41:48;13.18;;;9.90;;
51614;SDS011;37695;52.960;6.188;2023-08-24T10:47:05;13.07;;;10.32;;
51614;SDS011;37695;52.960;6.188;2023-08-24T10:49:39;10.88;;;9.30;;
51614;SDS011;37695;52.960;6.188;2023-08-24T10:52:22;13.45;;;9.50;;
51614;SDS011;37695;52.960;6.188;2023-08-24T10:54:48;14.88;;;10.13;;
51614;SDS011;37695;52.960;6.188;2023-08-24T10:59:45;14.75;;;10.40;;
51614;SDS011;37695;52.960;6.188;2023-08-24T11:02:18;13.85;;;10.43;;
51614;SDS011;37695;52.960;6.188;2023-08-24T11:05:03;13.90;;;10.18;;
51614;SDS011;37695;52.960;6.188;2023-08-24T11:07:49;15.85;;;10.80;;
51614;SDS011;37695;52.960;6.188;2023-08-24T11:10:15;14.85;;;11.60;;
51614;SDS011;37695;52.960;6.188;2023-08-24T11:15:32;14.52;;;11.35;;
51614;SDS011;37695;52.960;6.188;2023-08-24T11:20:59;22.85;;;11.80;;
51614;SDS011;37695;52.960;6.188;2023-08-24T11:23:27;16.80;;;12.10;;
51614;SDS011;37695;52.960;6.188;2023-08-24T11:25:53;18.27;;;11.43;;
51614;SDS011;37695;52.960;6.188;2023-08-24T11:28:22;18.58;;;11.90;;
51614;SDS011;37695;52.960;6.188;2023-08-24T11:30:52;15.70;;;12.70;;
51614;SDS011;37695;52.960;6.188;2023-08-24T11:33:33;17.10;;;11.57;;
51614;SDS011;37695;52.960;6.188;2023-08-24T11:36:00;12.68;;;10.93;;
51614;SDS011;37695;52.960;6.188;2023-08-24T11:38:40;15.15;;;12.18;;
51614;SDS011;37695;52.960;6.188;2023-08-24T11:41:13;17.52;;;11.60;;
51614;SDS011;37695;52.960;6.188;2023-08-24T11:43:40;14.05;;;11.32;;
51614;SDS011;37695;52.960;6.188;2023-08-24T11:46:06;14.07;;;11.23;;
51614;SDS011;37695;52.960;6.188;2023-08-24T11:48:32;13.68;;;10.98;;
51614;SDS011;37695;52.960;6.188;2023-08-24T11:50:58;17.27;;;12.45;;
51614;SDS011;37695;52.960;6.188;2023-08-24T11:53:24;16.80;;;11.07;;
51614;SDS011;37695;52.960;6.188;2023-08-24T11:55:54;13.65;;;11.30;;
51614;SDS011;37695;52.960;6.188;2023-08-24T11:58:20;17.77;;;11.30;;
51614;SDS011;37695;52.960;6.188;2023-08-24T12:00:45;12.80;;;10.80;;
51614;SDS011;37695;52.960;6.188;2023-08-24T12:03:12;13.82;;;10.93;;
51614;SDS011;37695;52.960;6.188;2023-08-24T12:05:38;12.95;;;10.65;;
51614;SDS011;37695;52.960;6.188;2023-08-24T12:08:03;13.57;;;11.15;;
51614;SDS011;37695;52.960;6.188;2023-08-24T12:10:30;13.80;;;10.90;;
51614;SDS011;37695;52.960;6.188;2023-08-24T12:13:02;11.63;;;10.40;;
51614;SDS011;37695;52.960;6.188;2023-08-24T12:17:58;14.13;;;11.25;;
51614;SDS011;37695;52.960;6.188;2023-08-24T12:20:32;13.45;;;12.00;;
51614;SDS011;37695;52.960;6.188;2023-08-24T12:22:58;12.93;;;10.70;;
51614;SDS011;37695;52.960;6.188;2023-08-24T12:25:24;14.52;;;11.48;;
51614;SDS011;37695;52.960;6.188;2023-08-24T12:27:50;11.43;;;10.23;;
51614;SDS011;37695;52.960;6.188;2023-08-24T12:30:18;17.63;;;11.38;;
51614;SDS011;37695;52.960;6.188;2023-08-24T12:32:48;11.80;;;10.57;;
51614;SDS011;37695;52.960;6.188;2023-08-24T12:35:16;14.35;;;11.68;;
51614;SDS011;37695;52.960;6.188;2023-08-24T12:37:42;13.95;;;12.48;;
51614;SDS011;37695;52.960;6.188;2023-08-24T12:40:08;14.80;;;11.13;;
51614;SDS011;37695;52.960;6.188;2023-08-24T12:42:34;14.40;;;11.60;;
51614;SDS011;37695;52.960;6.188;2023-08-24T12:45:00;17.05;;;11.60;;
51614;SDS011;37695;52.960;6.188;2023-08-24T12:47:26;13.68;;;10.85;;
51614;SDS011;37695;52.960;6.188;2023-08-24T12:49:51;15.80;;;12.02;;
51614;SDS011;37695;52.960;6.188;2023-08-24T12:52:19;13.38;;;12.07;;
51614;SDS011;37695;52.960;6.188;2023-08-24T12:54:45;14.90;;;12.80;;
51614;SDS011;37695;52.960;6.188;2023-08-24T12:57:10;15.80;;;12.63;;
51614;SDS011;37695;52.960;6.188;2023-08-24T12:59:36;14.18;;;12.40;;
51614;SDS011;37695;52.960;6.188;2023-08-24T13:02:01;14.40;;;12.48;;
51614;SDS011;37695;52.960;6.188;2023-08-24T13:04:27;15.73;;;13.15;;
51614;SDS011;37695;52.960;6.188;2023-08-24T13:06:54;13.98;;;12.55;;
51614;SDS011;37695;52.960;6.188;2023-08-24T13:09:20;13.88;;;12.48;;
51614;SDS011;37695;52.960;6.188;2023-08-24T13:11:46;15.23;;;13.13;;
51614;SDS011;37695;52.960;6.188;2023-08-24T13:14:13;17.05;;;14.25;;
51614;SDS011;37695;52.960;6.188;2023-08-24T13:16:39;14.43;;;12.90;;
51614;SDS011;37695;52.960;6.188;2023-08-24T13:19:04;19.23;;;13.88;;
51614;SDS011;37695;52.960;6.188;2023-08-24T13:21:30;17.50;;;14.02;;
51614;SDS011;37695;52.960;6.188;2023-08-24T13:23:55;15.18;;;13.57;;
51614;SDS011;37695;52.960;6.188;2023-08-24T13:26:21;15.30;;;13.77;;
51614;SDS011;37695;52.960;6.188;2023-08-24T13:28:48;17.35;;;13.40;;
51614;SDS011;37695;52.960;6.188;2023-08-24T13:31:14;15.70;;;13.50;;
51614;SDS011;37695;52.960;6.188;2023-08-24T13:33:40;15.35;;;13.85;;
51614;SDS011;37695;52.960;6.188;2023-08-24T13:36:06;15.50;;;13.73;;
51614;SDS011;37695;52.960;6.188;2023-08-24T13:38:31;14.25;;;12.65;;
51614;SDS011;37695;52.960;6.188;2023-08-24T13:40:57;15.05;;;12.63;;
51614;SDS011;37695;52.960;6.188;2023-08-24T13:43:22;16.02;;;14.23;;
51614;SDS011;37695;52.960;6.188;2023-08-24T13:45:48;15.20;;;13.50;;
51614;SDS011;37695;52.960;6.188;2023-08-24T13:48:14;14.75;;;13.27;;
51614;SDS011;37695;52.960;6.188;2023-08-24T13:50:41;14.85;;;13.35;;
51614;SDS011;37695;52.960;6.188;2023-08-24T13:53:06;13.13;;;11.73;;
51614;SDS011;37695;52.960;6.188;2023-08-24T13:55:32;14.93;;;12.27;;
51614;SDS011;37695;52.960;6.188;2023-08-24T13:57:58;17.00;;;12.07;;
51614;SDS011;37695;52.960;6.188;2023-08-24T14:00:23;12.77;;;10.77;;
51614;SDS011;37695;52.960;6.188;2023-08-24T14:02:50;12.90;;;11.60;;
51614;SDS011;37695;52.960;6.188;2023-08-24T14:05:15;13.18;;;11.88;;
51614;SDS011;37695;52.960;6.188;2023-08-24T14:07:41;13.45;;;11.48;;
51614;SDS011;37695;52.960;6.188;2023-08-24T14:10:07;12.88;;;11.57;;
51614;SDS011;37695;52.960;6.188;2023-08-24T14:12:33;14.10;;;12.57;;
51614;SDS011;37695;52.960;6.188;2023-08-24T14:14:58;14.77;;;12.55;;
51614;SDS011;37695;52.960;6.188;2023-08-24T14:17:24;14.00;;;12.45;;
51614;SDS011;37695;52.960;6.188;2023-08-24T14:19:50;13.93;;;12.15;;
51614;SDS011;37695;52.960;6.188;2023-08-24T14:22:15;16.20;;;12.85;;
51614;SDS011;37695;52.960;6.188;2023-08-24T14:24:41;16.20;;;13.48;;
51614;SDS011;37695;52.960;6.188;2023-08-24T14:27:06;14.43;;;12.95;;
51614;SDS011;37695;52.960;6.188;2023-08-24T14:29:32;15.93;;;12.20;;
51614;SDS011;37695;52.960;6.188;2023-08-24T14:31:58;18.27;;;13.45;;
51614;SDS011;37695;52.960;6.188;2023-08-24T14:34:23;14.57;;;13.05;;
51614;SDS011;37695;52.960;6.188;2023-08-24T14:36:49;14.75;;;13.13;;
51614;SDS011;37695;52.960;6.188;2023-08-24T14:39:14;15.25;;;12.88;;
51614;SDS011;37695;52.960;6.188;2023-08-24T14:41:40;14.15;;;12.20;;
51614;SDS011;37695;52.960;6.188;2023-08-24T14:44:06;14.93;;;12.77;;
51614;SDS011;37695;52.960;6.188;2023-08-24T14:46:31;15.10;;;13.50;;
51614;SDS011;37695;52.960;6.188;2023-08-24T14:48:58;15.50;;;13.88;;
51614;SDS011;37695;52.960;6.188;2023-08-24T14:51:23;16.52;;;14.23;;